sensor_id;sensor_type;location;lat;lon;timestamp;pressure;altitude;pressure_sealevel;temperature;humidity
75788;BME280;64406;50.024;14.492;2022-10-19T00:03:29;98990.41;;;10.96;90.10
75788;BME280;64406;50.024;14.492;2022-10-19T00:05:55;98994.75;;;10.97;90.09
75788;BME280;64406;50.024;14.492;2022-10-19T00:08:20;98993.13;;;11.01;89.37
75788;BME280;64406;50.024;14.492;2022-10-19T00:10:46;98996.09;;;10.99;90.20
75788;BME280;64406;50.024;14.492;2022-10-19T00:13:11;98998.25;;;11.02;89.52
75788;BME280;64406;50.024;14.492;2022-10-19T00:15:38;99009.84;;;10.98;90.33
75788;BME280;64406;50.024;14.492;2022-10-19T00:18:04;99019.53;;;10.94;90.10
75788;BME280;64406;50.024;14.492;2022-10-19T00:20:30;99012.22;;;10.89;90.11
75788;BME280;64406;50.024;14.492;2022-10-19T00:22:55;99008.75;;;10.94;90.11
75788;BME280;64406;50.024;14.492;2022-10-19T00:25:20;99000.97;;;11.02;90.09
75788;BME280;64406;50.024;14.492;2022-10-19T00:27:45;99000.41;;;11.00;90.07
75788;BME280;64406;50.024;14.492;2022-10-19T00:30:11;99002.84;;;11.02;89.68
75788;BME280;64406;50.024;14.492;2022-10-19T00:32:36;99009.88;;;11.08;90.15
75788;BME280;64406;50.024;14.492;2022-10-19T00:35:02;99003.94;;;11.06;89.84
75788;BME280;64406;50.024;14.492;2022-10-19T00:37:28;99006.91;;;11.04;89.78
75788;BME280;64406;50.024;14.492;2022-10-19T00:39:54;98995.09;;;11.10;89.74
75788;BME280;64406;50.024;14.492;2022-10-19T00:42:19;98996.41;;;11.08;89.42
75788;BME280;64406;50.024;14.492;2022-10-19T00:47:13;98997.22;;;11.03;89.64
75788;BME280;64406;50.024;14.492;2022-10-19T00:49:41;99001.78;;;11.08;89.60
75788;BME280;64406;50.024;14.492;2022-10-19T00:52:12;98988.06;;;11.09;89.96
75788;BME280;64406;50.024;14.492;2022-10-19T00:54:40;98992.09;;;11.07;89.11
75788;BME280;64406;50.024;14.492;2022-10-19T00:57:06;98993.72;;;11.03;89.60
75788;BME280;64406;50.024;14.492;2022-10-19T00:59:33;98989.66;;;11.05;89.93
75788;BME280;64406;50.024;14.492;2022-10-19T01:02:01;98990.16;;;11.02;89.19
75788;BME280;64406;50.024;14.492;2022-10-19T01:04:28;98979.38;;;11.02;89.10
75788;BME280;64406;50.024;14.492;2022-10-19T01:06:55;98987.50;;;11.07;89.62
75788;BME280;64406;50.024;14.492;2022-10-19T01:09:21;98976.19;;;11.05;89.06
75788;BME280;64406;50.024;14.492;2022-10-19T01:12:00;98977.25;;;11.04;88.99
75788;BME280;64406;50.024;14.492;2022-10-19T01:17:33;98974.28;;;11.06;89.23
75788;BME280;64406;50.024;14.492;2022-10-19T01:20:22;98969.19;;;11.04;89.87
75788;BME280;64406;50.024;14.492;2022-10-19T01:31:41;98959.75;;;11.07;89.34
75788;BME280;64406;50.024;14.492;2022-10-19T01:36:51;98963.19;;;10.92;89.84
75788;BME280;64406;50.024;14.492;2022-10-19T01:39:31;98958.09;;;11.01;90.34
75788;BME280;64406;50.024;14.492;2022-10-19T01:45:34;98968.06;;;11.00;89.75
75788;BME280;64406;50.024;14.492;2022-10-19T01:47:56;98960.53;;;10.97;89.75
75788;BME280;64406;50.024;14.492;2022-10-19T01:53:09;98956.44;;;10.95;89.62
75788;BME280;64406;50.024;14.492;2022-10-19T01:55:38;98956.22;;;10.96;89.77
75788;BME280;64406;50.024;14.492;2022-10-19T01:58:07;98955.91;;;10.93;90.43
75788;BME280;64406;50.024;14.492;2022-10-19T02:00:36;98950.25;;;10.94;90.09
75788;BME280;64406;50.024;14.492;2022-10-19T02:03:04;98947.81;;;10.93;90.33
75788;BME280;64406;50.024;14.492;2022-10-19T02:05:31;98948.06;;;10.86;89.58
75788;BME280;64406;50.024;14.492;2022-10-19T02:08:10;98947.25;;;10.85;90.41
75788;BME280;64406;50.024;14.492;2022-10-19T02:10:37;98947.53;;;10.89;90.31
75788;BME280;64406;50.024;14.492;2022-10-19T02:13:05;98947.78;;;10.87;90.54
75788;BME280;64406;50.024;14.492;2022-10-19T02:15:34;98952.06;;;10.78;90.38
75788;BME280;64406;50.024;14.492;2022-10-19T02:18:02;98956.09;;;10.76;90.37
75788;BME280;64406;50.024;14.492;2022-10-19T02:20:28;98956.91;;;10.81;90.28
75788;BME280;64406;50.024;14.492;2022-10-19T02:22:53;98960.44;;;10.82;90.46
75788;BME280;64406;50.024;14.492;2022-10-19T02:25:19;98951.22;;;10.73;90.45
75788;BME280;64406;50.024;14.492;2022-10-19T02:27:45;98955.31;;;10.80;90.30
75788;BME280;64406;50.024;14.492;2022-10-19T02:30:13;98950.16;;;10.74;91.16
75788;BME280;64406;50.024;14.492;2022-10-19T02:32:39;98938.88;;;10.77;90.46
75788;BME280;64406;50.024;14.492;2022-10-19T02:35:06;98940.25;;;10.84;91.12
75788;BME280;64406;50.024;14.492;2022-10-19T02:37:31;98944.31;;;10.92;90.18
75788;BME280;64406;50.024;14.492;2022-10-19T02:39:57;98944.84;;;10.94;90.25
75788;BME280;64406;50.024;14.492;2022-10-19T02:42:34;98939.97;;;10.86;90.22
75788;BME280;64406;50.024;14.492;2022-10-19T02:45:11;98945.06;;;10.82;91.02
75788;BME280;64406;50.024;14.492;2022-10-19T02:47:41;98941.09;;;10.90;91.16
75788;BME280;64406;50.024;14.492;2022-10-19T02:50:09;98937.84;;;10.93;90.50
75788;BME280;64406;50.024;14.492;2022-10-19T02:52:36;98940.50;;;10.88;90.32
75788;BME280;64406;50.024;14.492;2022-10-19T02:55:02;98931.91;;;10.91;90.75
75788;BME280;64406;50.024;14.492;2022-10-19T02:57:28;98944.84;;;10.94;90.75
75788;BME280;64406;50.024;14.492;2022-10-19T02:59:53;98935.41;;;10.92;90.54
75788;BME280;64406;50.024;14.492;2022-10-19T03:02:19;98942.97;;;10.89;90.65
75788;BME280;64406;50.024;14.492;2022-10-19T03:04:45;98946.47;;;10.95;90.69
75788;BME280;64406;50.024;14.492;2022-10-19T03:07:13;98946.47;;;10.95;90.80
75788;BME280;64406;50.024;14.492;2022-10-19T03:09:39;98947.31;;;11.01;90.25
75788;BME280;64406;50.024;14.492;2022-10-19T03:12:05;98945.91;;;10.88;90.05
75788;BME280;64406;50.024;14.492;2022-10-19T03:14:30;98944.56;;;10.85;90.44
75788;BME280;64406;50.024;14.492;2022-10-19T03:16:55;98942.66;;;10.86;90.75
75788;BME280;64406;50.024;14.492;2022-10-19T03:19:21;98952.09;;;10.88;91.19
75788;BME280;64406;50.024;14.492;2022-10-19T03:21:46;98937.53;;;10.84;90.75
75788;BME280;64406;50.024;14.492;2022-10-19T03:24:11;98943.44;;;10.81;91.14
75788;BME280;64406;50.024;14.492;2022-10-19T03:26:36;98941.81;;;10.80;90.67
75788;BME280;64406;50.024;14.492;2022-10-19T03:29:02;98935.09;;;10.78;90.88
75788;BME280;64406;50.024;14.492;2022-10-19T03:31:27;98941.06;;;10.85;90.53
75788;BME280;64406;50.024;14.492;2022-10-19T03:33:53;98939.41;;;10.79;90.35
75788;BME280;64406;50.024;14.492;2022-10-19T03:38:43;98943.38;;;10.66;90.91
75788;BME280;64406;50.024;14.492;2022-10-19T03:41:09;98942.81;;;10.59;90.26
75788;BME280;64406;50.024;14.492;2022-10-19T03:43:35;98937.91;;;10.51;91.06
75788;BME280;64406;50.024;14.492;2022-10-19T03:46:00;98938.44;;;10.53;90.38
75788;BME280;64406;50.024;14.492;2022-10-19T03:48:25;98944.84;;;10.42;90.05
75788;BME280;64406;50.024;14.492;2022-10-19T03:51:04;98944.28;;;10.40;89.82
75788;BME280;64406;50.024;14.492;2022-10-19T03:53:29;98952.69;;;10.43;90.21
75788;BME280;64406;50.024;14.492;2022-10-19T03:56:03;98959.13;;;10.42;90.33
75788;BME280;64406;50.024;14.492;2022-10-19T03:58:31;98947.06;;;10.50;89.80
75788;BME280;64406;50.024;14.492;2022-10-19T04:00:56;98956.22;;;10.54;90.01
75788;BME280;64406;50.024;14.492;2022-10-19T04:03:21;98952.91;;;10.42;90.16
75788;BME280;64406;50.024;14.492;2022-10-19T04:05:47;98943.81;;;10.48;90.70
75788;BME280;64406;50.024;14.492;2022-10-19T04:08:12;98950.81;;;10.44;90.72
75788;BME280;64406;50.024;14.492;2022-10-19T04:10:37;98948.06;;;10.39;90.28
75788;BME280;64406;50.024;14.492;2022-10-19T04:13:03;98948.56;;;10.35;90.60
75788;BME280;64406;50.024;14.492;2022-10-19T04:15:28;98946.69;;;10.36;90.65
75788;BME280;64406;50.024;14.492;2022-10-19T04:17:53;98952.56;;;10.28;90.01
75788;BME280;64406;50.024;14.492;2022-10-19T04:20:18;98947.97;;;10.28;90.53
75788;BME280;64406;50.024;14.492;2022-10-19T04:22:44;98956.06;;;10.28;90.38
75788;BME280;64406;50.024;14.492;2022-10-19T04:25:09;98951.53;;;10.34;90.15
75788;BME280;64406;50.024;14.492;2022-10-19T04:27:36;98945.91;;;10.41;90.21
75788;BME280;64406;50.024;14.492;2022-10-19T04:30:02;98945.97;;;10.46;90.08
75788;BME280;64406;50.024;14.492;2022-10-19T04:37:49;98947.53;;;10.42;90.10
75788;BME280;64406;50.024;14.492;2022-10-19T04:48:00;98947.50;;;10.37;90.54
75788;BME280;64406;50.024;14.492;2022-10-19T04:53:01;98951.84;;;10.43;90.16
75788;BME280;64406;50.024;14.492;2022-10-19T04:55:26;98943.53;;;10.44;90.01
75788;BME280;64406;50.024;14.492;2022-10-19T04:57:52;98938.66;;;10.41;89.91
75788;BME280;64406;50.024;14.492;2022-10-19T05:00:17;98938.66;;;10.41;89.90
75788;BME280;64406;50.024;14.492;2022-10-19T05:02:44;98932.44;;;10.41;89.33
75788;BME280;64406;50.024;14.492;2022-10-19T05:05:10;98934.34;;;10.40;89.62
75788;BME280;64406;50.024;14.492;2022-10-19T05:07:35;98929.81;;;10.14;89.64
75788;BME280;64406;50.024;14.492;2022-10-19T05:10:00;98934.06;;;10.04;90.01
75788;BME280;64406;50.024;14.492;2022-10-19T05:12:26;98945.88;;;10.03;90.31
75788;BME280;64406;50.024;14.492;2022-10-19T05:14:51;98941.53;;;9.97;89.82
75788;BME280;64406;50.024;14.492;2022-10-19T05:17:16;98957.69;;;9.97;90.00
75788;BME280;64406;50.024;14.492;2022-10-19T05:19:42;98954.31;;;10.12;89.84
75788;BME280;64406;50.024;14.492;2022-10-19T05:22:08;98955.72;;;10.20;89.82
75788;BME280;64406;50.024;14.492;2022-10-19T05:24:33;98952.16;;;10.14;89.81
75788;BME280;64406;50.024;14.492;2022-10-19T05:26:58;98962.34;;;10.07;89.54
75788;BME280;64406;50.024;14.492;2022-10-19T05:31:59;98955.34;;;10.06;89.98
75788;BME280;64406;50.024;14.492;2022-10-19T05:34:24;98960.47;;;10.07;90.79
75788;BME280;64406;50.024;14.492;2022-10-19T05:36:49;98966.16;;;10.11;90.24
75788;BME280;64406;50.024;14.492;2022-10-19T05:39:16;98970.19;;;10.14;90.08
75788;BME280;64406;50.024;14.492;2022-10-19T05:41:42;98961.59;;;10.17;90.46
75788;BME280;64406;50.024;14.492;2022-10-19T05:44:12;98964.31;;;10.22;90.21
75788;BME280;64406;50.024;14.492;2022-10-19T05:46:38;98972.25;;;10.33;90.15
75788;BME280;64406;50.024;14.492;2022-10-19T05:49:03;98970.47;;;10.44;89.65
75788;BME280;64406;50.024;14.492;2022-10-19T05:51:29;98975.09;;;10.54;89.54
75788;BME280;64406;50.024;14.492;2022-10-19T05:53:55;98974.28;;;10.53;89.23
75788;BME280;64406;50.024;14.492;2022-10-19T05:56:31;98976.97;;;10.53;89.37
75788;BME280;64406;50.024;14.492;2022-10-19T05:59:01;98987.75;;;10.53;89.49
75788;BME280;64406;50.024;14.492;2022-10-19T06:01:27;98989.16;;;10.61;90.31
75788;BME280;64406;50.024;14.492;2022-10-19T06:03:54;98992.16;;;10.65;90.05
75788;BME280;64406;50.024;14.492;2022-10-19T06:06:21;98989.19;;;10.66;89.13
75788;BME280;64406;50.024;14.492;2022-10-19T06:08:47;98988.41;;;10.71;89.15
75788;BME280;64406;50.024;14.492;2022-10-19T06:11:41;98994.34;;;10.73;88.63
75788;BME280;64406;50.024;14.492;2022-10-19T06:14:11;98999.72;;;10.73;87.96
75788;BME280;64406;50.024;14.492;2022-10-19T06:16:37;99003.78;;;10.70;88.28
75788;BME280;64406;50.024;14.492;2022-10-19T06:19:04;99009.69;;;10.72;87.95
75788;BME280;64406;50.024;14.492;2022-10-19T06:21:30;99012.06;;;10.64;88.51
75788;BME280;64406;50.024;14.492;2022-10-19T06:23:59;99017.75;;;10.67;88.50
75788;BME280;64406;50.024;14.492;2022-10-19T06:26:27;99023.19;;;10.72;88.34
75788;BME280;64406;50.024;14.492;2022-10-19T06:28:55;99025.06;;;10.72;88.40
75788;BME280;64406;50.024;14.492;2022-10-19T06:31:20;99031.00;;;10.74;88.00
75788;BME280;64406;50.024;14.492;2022-10-19T06:33:46;99024.03;;;10.78;87.81
75788;BME280;64406;50.024;14.492;2022-10-19T06:36:15;99025.59;;;10.74;87.44
75788;BME280;64406;50.024;14.492;2022-10-19T06:38:41;99025.34;;;10.75;86.56
75788;BME280;64406;50.024;14.492;2022-10-19T06:41:07;99032.84;;;10.68;86.75
75788;BME280;64406;50.024;14.492;2022-10-19T06:43:33;99024.75;;;10.68;86.35
75788;BME280;64406;50.024;14.492;2022-10-19T06:46:05;99026.13;;;10.71;86.57
75788;BME280;64406;50.024;14.492;2022-10-19T06:48:31;99020.03;;;10.48;84.62
75788;BME280;64406;50.024;14.492;2022-10-19T06:51:03;99032.19;;;10.51;85.26
75788;BME280;64406;50.024;14.492;2022-10-19T06:53:29;99040.72;;;10.43;85.66
75788;BME280;64406;50.024;14.492;2022-10-19T06:55:58;99042.41;;;10.49;86.51
75788;BME280;64406;50.024;14.492;2022-10-19T06:58:24;99051.00;;;10.46;84.19
75788;BME280;64406;50.024;14.492;2022-10-19T07:00:56;99054.28;;;10.53;84.95
75788;BME280;64406;50.024;14.492;2022-10-19T07:03:23;99053.22;;;10.54;85.95
75788;BME280;64406;50.024;14.492;2022-10-19T07:05:57;99055.91;;;10.54;85.70
75788;BME280;64406;50.024;14.492;2022-10-19T07:08:23;99048.84;;;10.48;85.81
75788;BME280;64406;50.024;14.492;2022-10-19T07:10:50;99051.50;;;10.43;83.89
75788;BME280;64406;50.024;14.492;2022-10-19T07:13:16;99052.09;;;10.18;83.67
75788;BME280;64406;50.024;14.492;2022-10-19T07:15:41;99057.41;;;10.13;84.70
75788;BME280;64406;50.024;14.492;2022-10-19T07:18:06;99058.78;;;10.15;82.54
75788;BME280;64406;50.024;14.492;2022-10-19T07:20:32;99058.16;;;10.08;84.06
75788;BME280;64406;50.024;14.492;2022-10-19T07:22:57;99073.78;;;10.06;84.13
75788;BME280;64406;50.024;14.492;2022-10-19T07:25:22;99071.38;;;10.09;84.45
75788;BME280;64406;50.024;14.492;2022-10-19T07:27:47;99066.59;;;10.17;82.86
75788;BME280;64406;50.024;14.492;2022-10-19T07:30:13;99062.06;;;10.22;83.63
75788;BME280;64406;50.024;14.492;2022-10-19T07:32:38;99060.84;;;11.04;83.78
75788;BME280;64406;50.024;14.492;2022-10-19T07:35:04;99071.25;;;12.16;79.30
75788;BME280;64406;50.024;14.492;2022-10-19T07:37:29;99071.22;;;12.01;78.43
75788;BME280;64406;50.024;14.492;2022-10-19T07:39:55;99069.50;;;11.69;78.71
75788;BME280;64406;50.024;14.492;2022-10-19T07:42:20;99068.56;;;11.38;81.14
75788;BME280;64406;50.024;14.492;2022-10-19T07:44:45;99077.88;;;11.10;79.45
75788;BME280;64406;50.024;14.492;2022-10-19T07:47:11;99069.44;;;11.01;80.10
75788;BME280;64406;50.024;14.492;2022-10-19T07:49:36;99079.94;;;10.98;82.21
75788;BME280;64406;50.024;14.492;2022-10-19T07:52:02;99085.53;;;10.86;81.88
75788;BME280;64406;50.024;14.492;2022-10-19T07:54:27;99081.25;;;10.95;82.64
75788;BME280;64406;50.024;14.492;2022-10-19T07:56:53;99087.22;;;10.97;83.04
75788;BME280;64406;50.024;14.492;2022-10-19T07:59:18;99073.97;;;10.91;82.49
75788;BME280;64406;50.024;14.492;2022-10-19T08:01:45;99084.72;;;10.85;82.32
75788;BME280;64406;50.024;14.492;2022-10-19T08:04:11;99092.78;;;10.85;82.00
75788;BME280;64406;50.024;14.492;2022-10-19T08:06:37;99091.13;;;10.79;81.05
75788;BME280;64406;50.024;14.492;2022-10-19T08:09:03;99092.47;;;10.77;80.80
75788;BME280;64406;50.024;14.492;2022-10-19T08:11:31;99093.03;;;10.79;80.35
75788;BME280;64406;50.024;14.492;2022-10-19T08:13:57;99092.38;;;10.67;80.26
75788;BME280;64406;50.024;14.492;2022-10-19T08:19:03;99093.94;;;10.57;81.76
75788;BME280;64406;50.024;14.492;2022-10-19T08:21:31;99096.91;;;10.61;78.37
75788;BME280;64406;50.024;14.492;2022-10-19T08:23:56;99095.56;;;10.58;79.42
75788;BME280;64406;50.024;14.492;2022-10-19T08:26:22;99096.69;;;10.68;78.93
75788;BME280;64406;50.024;14.492;2022-10-19T08:28:48;99099.19;;;10.74;78.40
75788;BME280;64406;50.024;14.492;2022-10-19T08:31:16;99098.19;;;10.85;79.49
75788;BME280;64406;50.024;14.492;2022-10-19T08:33:42;99099.31;;;10.89;76.66
75788;BME280;64406;50.024;14.492;2022-10-19T08:36:09;99093.13;;;10.94;76.88
75788;BME280;64406;50.024;14.492;2022-10-19T08:38:35;99088.66;;;10.73;75.88
75788;BME280;64406;50.024;14.492;2022-10-19T08:49:43;99099.59;;;10.93;77.12
75788;BME280;64406;50.024;14.492;2022-10-19T08:52:18;99086.16;;;10.98;75.66
75788;BME280;64406;50.024;14.492;2022-10-19T08:54:50;99091.22;;;10.95;76.12
75788;BME280;64406;50.024;14.492;2022-10-19T08:59:56;99086.63;;;10.90;76.16
75788;BME280;64406;50.024;14.492;2022-10-19T09:05:51;99083.03;;;11.22;73.29
75788;BME280;64406;50.024;14.492;2022-10-19T09:08:18;99076.53;;;11.12;74.50
75788;BME280;64406;50.024;14.492;2022-10-19T09:10:47;99084.59;;;11.12;72.45
75788;BME280;64406;50.024;14.492;2022-10-19T09:15:57;99083.53;;;11.13;70.25
75788;BME280;64406;50.024;14.492;2022-10-19T09:18:25;99087.03;;;11.14;71.27
75788;BME280;64406;50.024;14.492;2022-10-19T09:21:15;99083.72;;;10.97;69.19
75788;BME280;64406;50.024;14.492;2022-10-19T09:26:21;99087.22;;;10.97;68.98
75788;BME280;64406;50.024;14.492;2022-10-19T09:28:57;99098.13;;;10.80;69.87
75788;BME280;64406;50.024;14.492;2022-10-19T09:33:59;99080.72;;;10.93;68.51
75788;BME280;64406;50.024;14.492;2022-10-19T09:36:40;99087.38;;;11.23;65.12
75788;BME280;64406;50.024;14.492;2022-10-19T09:39:11;99091.22;;;11.37;65.58
75788;BME280;64406;50.024;14.492;2022-10-19T09:41:44;99099.03;;;11.38;66.72
75788;BME280;64406;50.024;14.492;2022-10-19T09:44:11;99095.31;;;11.44;63.37
75788;BME280;64406;50.024;14.492;2022-10-19T09:46:49;99097.34;;;11.27;65.28
75788;BME280;64406;50.024;14.492;2022-10-19T09:49:41;99103.78;;;11.21;65.17
75788;BME280;64406;50.024;14.492;2022-10-19T09:52:31;99107.16;;;11.43;63.85
75788;BME280;64406;50.024;14.492;2022-10-19T09:55:01;99102.06;;;11.52;64.77
75788;BME280;64406;50.024;14.492;2022-10-19T09:59:54;99106.69;;;11.57;64.61
75788;BME280;64406;50.024;14.492;2022-10-19T10:02:28;99106.19;;;11.65;63.52
75788;BME280;64406;50.024;14.492;2022-10-19T10:05:05;99104.03;;;11.67;61.41
75788;BME280;64406;50.024;14.492;2022-10-19T10:07:36;99109.72;;;11.70;61.83
75788;BME280;64406;50.024;14.492;2022-10-19T10:10:23;99110.38;;;11.98;60.05
75788;BME280;64406;50.024;14.492;2022-10-19T10:12:51;99113.66;;;12.20;60.96
75788;BME280;64406;50.024;14.492;2022-10-19T10:15:21;99108.28;;;12.25;59.81
75788;BME280;64406;50.024;14.492;2022-10-19T10:17:48;99115.84;;;12.29;59.50
75788;BME280;64406;50.024;14.492;2022-10-19T10:20:26;99102.66;;;12.63;57.75
75788;BME280;64406;50.024;14.492;2022-10-19T10:22:58;99107.78;;;12.69;58.34
75788;BME280;64406;50.024;14.492;2022-10-19T10:25:31;99100.47;;;12.75;57.21
75788;BME280;64406;50.024;14.492;2022-10-19T10:28:03;99106.13;;;12.78;57.93
75788;BME280;64406;50.024;14.492;2022-10-19T10:35:54;99089.09;;;12.78;57.61
75788;BME280;64406;50.024;14.492;2022-10-19T10:38:27;99099.69;;;12.74;57.38
75788;BME280;64406;50.024;14.492;2022-10-19T10:40:59;99096.69;;;12.76;58.30
75788;BME280;64406;50.024;14.492;2022-10-19T10:43:32;99094.50;;;12.78;55.52
75788;BME280;64406;50.024;14.492;2022-10-19T10:46:02;99098.31;;;12.67;55.58
75788;BME280;64406;50.024;14.492;2022-10-19T10:50:54;99105.28;;;12.27;57.65
75788;BME280;64406;50.024;14.492;2022-10-19T10:53:36;99101.81;;;12.37;55.30
75788;BME280;64406;50.024;14.492;2022-10-19T10:56:04;99109.91;;;12.37;56.74
75788;BME280;64406;50.024;14.492;2022-10-19T10:58:38;99104.78;;;12.30;58.81
75788;BME280;64406;50.024;14.492;2022-10-19T11:01:17;99103.41;;;12.17;56.02
75788;BME280;64406;50.024;14.492;2022-10-19T11:03:49;99112.59;;;12.27;57.06
75788;BME280;64406;50.024;14.492;2022-10-19T11:06:18;99104.78;;;12.30;55.12
75788;BME280;64406;50.024;14.492;2022-10-19T11:08:58;99109.38;;;12.30;57.96
75788;BME280;64406;50.024;14.492;2022-10-19T11:11:34;99102.91;;;12.36;57.65
75788;BME280;64406;50.024;14.492;2022-10-19T11:14:29;99097.22;;;12.42;57.89
75788;BME280;64406;50.024;14.492;2022-10-19T11:17:02;99092.63;;;12.58;55.70
75788;BME280;64406;50.024;14.492;2022-10-19T11:19:40;99096.94;;;12.59;55.75
75788;BME280;64406;50.024;14.492;2022-10-19T11:22:13;99094.50;;;12.73;54.54
75788;BME280;64406;50.024;14.492;2022-10-19T11:24:52;99101.00;;;12.82;55.62
75788;BME280;64406;50.024;14.492;2022-10-19T11:33:05;99087.50;;;12.72;55.34
75788;BME280;64406;50.024;14.492;2022-10-19T11:35:46;99075.31;;;12.90;57.05
75788;BME280;64406;50.024;14.492;2022-10-19T11:38:31;99078.25;;;13.03;54.71
75788;BME280;64406;50.024;14.492;2022-10-19T11:43:50;99069.38;;;15.67;51.89
75788;BME280;64406;50.024;14.492;2022-10-19T11:52:00;99070.69;;;13.85;52.72
75788;BME280;64406;50.024;14.492;2022-10-19T12:04:22;99061.13;;;13.44;53.90
75788;BME280;64406;50.024;14.492;2022-10-19T12:07:27;99060.91;;;13.35;52.45
75788;BME280;64406;50.024;14.492;2022-10-19T12:12:43;99052.31;;;12.87;55.04
75788;BME280;64406;50.024;14.492;2022-10-19T12:17:37;99061.03;;;12.48;55.27
75788;BME280;64406;50.024;14.492;2022-10-19T12:20:17;99052.09;;;12.33;56.08
75788;BME280;64406;50.024;14.492;2022-10-19T12:22:44;99057.50;;;12.58;55.88
75788;BME280;64406;50.024;14.492;2022-10-19T12:25:12;99049.63;;;12.87;54.66
75788;BME280;64406;50.024;14.492;2022-10-19T12:27:40;99048.22;;;13.00;51.99
75788;BME280;64406;50.024;14.492;2022-10-19T12:30:15;99037.66;;;13.14;52.04
75788;BME280;64406;50.024;14.492;2022-10-19T12:33:08;99038.50;;;12.94;52.33
75788;BME280;64406;50.024;14.492;2022-10-19T12:38:49;99040.69;;;12.87;53.72
75788;BME280;64406;50.024;14.492;2022-10-19T12:46:39;99033.59;;;13.16;50.51
75788;BME280;64406;50.024;14.492;2022-10-19T12:51:54;99030.69;;;12.87;50.39
75788;BME280;64406;50.024;14.492;2022-10-19T12:54:23;99035.22;;;13.12;50.47
75788;BME280;64406;50.024;14.492;2022-10-19T12:56:51;99026.88;;;13.09;50.50
75788;BME280;64406;50.024;14.492;2022-10-19T12:59:40;99026.16;;;12.62;52.33
75788;BME280;64406;50.024;14.492;2022-10-19T13:02:24;99025.56;;;12.86;51.56
75788;BME280;64406;50.024;14.492;2022-10-19T13:04:51;99022.31;;;12.84;51.30
75788;BME280;64406;50.024;14.492;2022-10-19T13:07:17;99028.00;;;12.82;51.44
75788;BME280;64406;50.024;14.492;2022-10-19T13:09:45;99029.91;;;12.76;51.23
75788;BME280;64406;50.024;14.492;2022-10-19T13:14:51;99022.34;;;12.68;50.09
75788;BME280;64406;50.024;14.492;2022-10-19T13:27:41;99022.91;;;12.09;51.34
75788;BME280;64406;50.024;14.492;2022-10-19T13:38:35;99023.38;;;12.98;49.50
75788;BME280;64406;50.024;14.492;2022-10-19T13:46:13;99024.69;;;13.16;49.63
75788;BME280;64406;50.024;14.492;2022-10-19T13:52:11;99013.72;;;12.51;50.91
75788;BME280;64406;50.024;14.492;2022-10-19T14:11:37;99007.78;;;12.29;51.42
75788;BME280;64406;50.024;14.492;2022-10-19T14:16:56;99008.59;;;12.29;51.59
75788;BME280;64406;50.024;14.492;2022-10-19T14:19:29;99015.88;;;12.18;52.83
75788;BME280;64406;50.024;14.492;2022-10-19T14:21:57;99018.84;;;11.96;52.81
75788;BME280;64406;50.024;14.492;2022-10-19T14:24:34;99005.63;;;12.10;52.29
75788;BME280;64406;50.024;14.492;2022-10-19T14:27:05;99015.06;;;12.08;51.67
75788;BME280;64406;50.024;14.492;2022-10-19T14:29:42;99018.31;;;12.05;51.17
75788;BME280;64406;50.024;14.492;2022-10-19T14:32:10;99012.09;;;12.04;52.81
75788;BME280;64406;50.024;14.492;2022-10-19T14:34:44;99013.44;;;11.96;52.76
75788;BME280;64406;50.024;14.492;2022-10-19T14:37:22;99017.09;;;11.60;53.58
75788;BME280;64406;50.024;14.492;2022-10-19T14:40:02;99013.81;;;11.37;53.90
75788;BME280;64406;50.024;14.492;2022-10-19T14:42:43;99008.19;;;11.59;52.72
75788;BME280;64406;50.024;14.492;2022-10-19T14:45:12;99005.59;;;11.90;53.74
75788;BME280;64406;50.024;14.492;2022-10-19T14:48:14;99013.72;;;12.05;52.80
75788;BME280;64406;50.024;14.492;2022-10-19T14:50:50;99008.31;;;12.10;53.15
75788;BME280;64406;50.024;14.492;2022-10-19T14:56:15;99008.31;;;12.20;53.25
75788;BME280;64406;50.024;14.492;2022-10-19T15:01:35;98999.38;;;11.94;53.82
75788;BME280;64406;50.024;14.492;2022-10-19T15:04:02;99003.97;;;11.84;54.49
75788;BME280;64406;50.024;14.492;2022-10-19T15:06:30;99008.25;;;11.69;54.47
75788;BME280;64406;50.024;14.492;2022-10-19T15:09:04;99010.91;;;11.59;54.85
75788;BME280;64406;50.024;14.492;2022-10-19T15:11:38;99006.28;;;11.50;55.74
75788;BME280;64406;50.024;14.492;2022-10-19T15:14:09;99014.03;;;11.31;56.10
75788;BME280;64406;50.024;14.492;2022-10-19T15:19:32;99002.94;;;11.17;57.25
75788;BME280;64406;50.024;14.492;2022-10-19T15:27:37;99001.59;;;11.20;55.95
75788;BME280;64406;50.024;14.492;2022-10-19T15:32:41;98999.75;;;11.30;53.62
75788;BME280;64406;50.024;14.492;2022-10-19T15:37:42;98993.47;;;11.14;53.46
75788;BME280;64406;50.024;14.492;2022-10-19T15:40:26;98994.53;;;11.08;53.76
75788;BME280;64406;50.024;14.492;2022-10-19T15:42:53;99004.88;;;10.79;54.46
75788;BME280;64406;50.024;14.492;2022-10-19T15:45:28;98991.03;;;10.60;54.81
75788;BME280;64406;50.024;14.492;2022-10-19T15:48:24;98990.00;;;10.67;55.01
75788;BME280;64406;50.024;14.492;2022-10-19T15:50:50;98996.59;;;10.49;55.48
75788;BME280;64406;50.024;14.492;2022-10-19T15:53:17;98995.34;;;10.56;56.18
75788;BME280;64406;50.024;14.492;2022-10-19T15:55:43;98989.72;;;10.68;56.64
75788;BME280;64406;50.024;14.492;2022-10-19T15:58:10;98994.81;;;10.59;56.60
75788;BME280;64406;50.024;14.492;2022-10-19T16:00:36;98993.84;;;10.81;56.08
75788;BME280;64406;50.024;14.492;2022-10-19T16:03:02;98997.97;;;10.94;56.83
75788;BME280;64406;50.024;14.492;2022-10-19T16:05:29;98995.56;;;10.97;55.08
75788;BME280;64406;50.024;14.492;2022-10-19T16:07:54;98994.47;;;10.98;56.30
75788;BME280;64406;50.024;14.492;2022-10-19T16:10:24;98995.00;;;10.90;57.19
75788;BME280;64406;50.024;14.492;2022-10-19T16:12:50;99000.69;;;10.99;57.76